createdAt,value
2022-11-19T00:01:07.615Z,16.83
2022-11-19T00:03:34.583Z,18.85
2022-11-19T00:06:05.610Z,17.67
2022-11-19T00:08:32.267Z,18.90
2022-11-19T00:11:09.851Z,16.65
2022-11-19T00:13:36.925Z,16.65
2022-11-19T00:16:04.384Z,14.82
2022-11-19T00:18:30.931Z,16.80
2022-11-19T00:21:01.873Z,15.82
2022-11-19T00:23:28.334Z,17.05
2022-11-19T00:25:54.679Z,15.85
2022-11-19T00:28:21.073Z,16.15
2022-11-19T00:30:48.646Z,15.75
2022-11-19T00:33:15.297Z,13.88
2022-11-19T00:35:41.599Z,16.20
2022-11-19T00:38:07.963Z,17.80
2022-11-19T00:40:34.435Z,16.88
2022-11-19T00:43:19.442Z,17.25
2022-11-19T00:45:45.775Z,15.70
2022-11-19T00:48:12.168Z,17.67
2022-11-19T00:50:38.535Z,14.65
2022-11-19T00:53:05.018Z,16.42
2022-11-19T00:55:31.410Z,14.88
2022-11-19T00:57:57.808Z,19.08
2022-11-19T01:00:24.169Z,15.68
2022-11-19T01:02:50.622Z,16.90
2022-11-19T01:05:17.051Z,17.65
2022-11-19T01:07:43.467Z,15.75
2022-11-19T01:10:09.998Z,16.92
2022-11-19T01:12:58.275Z,12.95
2022-11-19T01:15:25.728Z,14.48
2022-11-19T01:17:52.142Z,13.13
2022-11-19T01:20:18.722Z,13.55
2022-11-19T01:22:46.243Z,13.25
2022-11-19T01:25:12.664Z,12.55
2022-11-19T01:27:39.084Z,13.40
2022-11-19T01:30:05.773Z,13.27
2022-11-19T01:32:32.825Z,13.05
2022-11-19T01:34:59.197Z,14.45
2022-11-19T01:37:26.187Z,12.30
2022-11-19T01:39:52.636Z,12.75
2022-11-19T01:42:48.427Z,16.05
2022-11-19T01:45:33.378Z,16.25
2022-11-19T01:48:11.976Z,13.45
2022-11-19T01:50:41.456Z,17.02
2022-11-19T01:53:09.361Z,17.42
2022-11-19T01:55:36.701Z,18.00
2022-11-19T01:58:03.925Z,16.10
2022-11-19T02:00:30.327Z,15.27
2022-11-19T02:02:58.655Z,17.52
2022-11-19T02:05:25.507Z,15.90
2022-11-19T02:07:53.972Z,15.23
2022-11-19T02:10:24.718Z,18.35
2022-11-19T02:13:06.791Z,23.33
2022-11-19T02:16:01.869Z,20.10
2022-11-19T02:18:44.860Z,17.85
2022-11-19T02:21:33.147Z,18.92
2022-11-19T02:24:27.689Z,17.40
2022-11-19T02:30:18.462Z,20.88
2022-11-19T02:33:20.702Z,17.67
2022-11-19T02:35:56.505Z,20.98
2022-11-19T02:41:37.892Z,22.05
2022-11-19T02:44:43.326Z,20.23
2022-11-19T02:47:16.025Z,21.38
2022-11-19T02:52:09.332Z,19.35
2022-11-19T02:54:35.702Z,23.85
2022-11-19T02:57:02.817Z,21.88
2022-11-19T02:59:51.296Z,23.48
2022-11-19T03:02:37.146Z,23.35
2022-11-19T03:05:06.715Z,23.70
2022-11-19T03:07:33.159Z,25.50
2022-11-19T03:10:02.711Z,27.55
2022-11-19T03:12:35.803Z,23.20
2022-11-19T03:15:50.459Z,26.77
2022-11-19T03:18:19.257Z,27.52
2022-11-19T03:20:49.009Z,25.92
2022-11-19T03:23:54.250Z,26.13
2022-11-19T03:26:23.449Z,28.63
2022-11-19T03:28:51.411Z,24.58
2022-11-19T03:31:18.702Z,25.73
2022-11-19T03:33:47.375Z,25.35
2022-11-19T03:36:16.732Z,26.25
2022-11-19T03:38:45.307Z,26.27
2022-11-19T03:41:13.000Z,27.73
2022-11-19T03:43:41.498Z,26.27
2022-11-19T03:46:09.939Z,27.38
2022-11-19T03:48:36.992Z,26.75
2022-11-19T03:51:17.741Z,27.10
2022-11-19T03:53:44.202Z,27.90
2022-11-19T03:56:13.466Z,29.52
2022-11-19T03:58:40.765Z,27.30
2022-11-19T04:01:07.340Z,26.50
2022-11-19T04:03:33.806Z,27.70
2022-11-19T04:06:00.218Z,28.58
2022-11-19T04:08:26.639Z,29.77
2022-11-19T04:10:53.301Z,26.00
2022-11-19T04:13:19.808Z,27.98
2022-11-19T04:15:46.224Z,26.27
2022-11-19T04:18:12.598Z,27.52
2022-11-19T04:20:38.985Z,26.85
2022-11-19T04:23:05.432Z,25.90
2022-11-19T04:25:31.755Z,26.85
2022-11-19T04:27:58.122Z,27.23
2022-11-19T04:30:24.563Z,27.92
2022-11-19T04:32:51.018Z,29.65
2022-11-19T04:35:21.675Z,29.85
2022-11-19T04:37:48.484Z,28.30
2022-11-19T04:40:15.162Z,30.60
2022-11-19T04:42:41.487Z,30.67
2022-11-19T04:45:08.238Z,29.63
2022-11-19T04:47:34.564Z,32.35
2022-11-19T04:50:01.010Z,31.48
2022-11-19T04:52:28.341Z,33.33
2022-11-19T04:54:54.708Z,32.50
2022-11-19T04:57:21.099Z,33.00
2022-11-19T04:59:47.449Z,32.05
2022-11-19T05:02:13.859Z,31.58
2022-11-19T05:04:40.214Z,31.13
2022-11-19T05:07:06.591Z,35.40
2022-11-19T05:09:32.960Z,33.60
2022-11-19T05:11:59.359Z,31.95
2022-11-19T05:14:30.073Z,34.28
2022-11-19T05:16:57.072Z,35.28
2022-11-19T05:19:23.426Z,34.38
2022-11-19T05:21:49.843Z,33.33
2022-11-19T05:24:16.195Z,32.60
2022-11-19T05:26:42.614Z,35.33
2022-11-19T05:29:09.035Z,36.15
2022-11-19T05:31:35.411Z,35.70
2022-11-19T05:34:01.839Z,36.80
2022-11-19T05:36:28.256Z,34.45
2022-11-19T05:38:54.717Z,37.88
2022-11-19T05:41:21.110Z,34.30
2022-11-19T05:43:47.531Z,36.20
2022-11-19T05:46:14.019Z,36.55
2022-11-19T05:48:40.382Z,34.17
2022-11-19T05:51:06.754Z,36.85
2022-11-19T05:53:33.137Z,33.17
2022-11-19T05:55:59.497Z,32.20
2022-11-19T05:58:25.819Z,32.45
2022-11-19T06:00:56.009Z,33.80
2022-11-19T06:03:22.512Z,34.10
2022-11-19T06:05:48.906Z,33.55
2022-11-19T06:08:15.254Z,34.67
2022-11-19T06:10:41.731Z,38.10
2022-11-19T06:13:08.154Z,37.50
2022-11-19T06:15:34.578Z,32.75
2022-11-19T06:18:00.998Z,36.65
2022-11-19T06:20:27.472Z,35.83
2022-11-19T06:22:53.896Z,34.97
2022-11-19T06:25:20.264Z,35.25
2022-11-19T06:27:46.626Z,37.35
2022-11-19T06:30:13.331Z,34.47
2022-11-19T06:32:39.674Z,36.35
2022-11-19T06:35:06.308Z,36.58
2022-11-19T06:37:32.739Z,33.88
2022-11-19T06:39:59.116Z,32.42
2022-11-19T06:42:37.924Z,36.58
2022-11-19T06:45:07.575Z,35.50
2022-11-19T06:47:34.071Z,36.67
2022-11-19T06:50:00.522Z,36.92
2022-11-19T06:52:27.251Z,36.25
2022-11-19T06:54:53.873Z,35.58
2022-11-19T06:57:20.709Z,35.58
2022-11-19T06:59:47.343Z,38.83
2022-11-19T07:02:15.948Z,35.22
2022-11-19T07:04:45.410Z,28.40
2022-11-19T07:07:11.897Z,37.03
2022-11-19T07:09:38.652Z,34.38
2022-11-19T07:12:05.315Z,35.20
2022-11-19T07:14:31.731Z,34.58
2022-11-19T07:16:58.162Z,35.42
2022-11-19T07:19:24.516Z,32.17
2022-11-19T07:21:50.970Z,36.67
2022-11-19T07:24:17.878Z,34.42
2022-11-19T07:26:44.454Z,34.83
2022-11-19T07:29:12.548Z,36.05
2022-11-19T07:31:40.082Z,31.80
2022-11-19T07:34:07.098Z,33.55
2022-11-19T07:36:33.423Z,33.10
2022-11-19T07:38:59.759Z,33.92
2022-11-19T07:41:44.658Z,35.83
2022-11-19T07:44:11.058Z,32.05
2022-11-19T07:46:37.379Z,31.83
2022-11-19T07:49:03.851Z,30.60
2022-11-19T07:51:30.314Z,33.25
2022-11-19T07:53:56.838Z,31.90
2022-11-19T07:56:23.475Z,31.63
2022-11-19T07:58:49.898Z,30.52
2022-11-19T08:01:20.495Z,37.22
2022-11-19T08:03:50.720Z,33.53
2022-11-19T08:06:23.343Z,34.40
2022-11-19T08:08:49.776Z,31.55
2022-11-19T08:11:16.817Z,31.45
2022-11-19T08:13:43.475Z,31.77
2022-11-19T08:16:10.875Z,28.95
2022-11-19T08:18:37.313Z,29.50
2022-11-19T08:21:08.151Z,29.77
2022-11-19T08:23:35.462Z,30.42
2022-11-19T08:26:01.978Z,33.17
2022-11-19T08:28:28.983Z,31.23
2022-11-19T08:30:55.678Z,29.25
2022-11-19T08:33:22.174Z,31.27
2022-11-19T08:35:48.656Z,28.73
2022-11-19T08:38:14.983Z,29.98
2022-11-19T08:40:41.348Z,28.42
2022-11-19T08:43:07.758Z,28.50
2022-11-19T08:45:35.146Z,30.35
2022-11-19T08:48:02.158Z,27.02
2022-11-19T08:50:28.853Z,29.75
2022-11-19T08:52:56.385Z,28.90
2022-11-19T08:55:22.861Z,28.98
2022-11-19T08:57:49.339Z,28.98
2022-11-19T09:00:16.507Z,29.75
2022-11-19T09:02:43.202Z,25.67
2022-11-19T09:05:14.386Z,29.45
2022-11-19T09:07:41.156Z,28.30
2022-11-19T09:10:08.160Z,29.17
2022-11-19T09:12:34.591Z,26.52
2022-11-19T09:15:01.166Z,28.67
2022-11-19T09:17:27.574Z,24.25
2022-11-19T09:19:53.982Z,26.13
2022-11-19T09:22:20.835Z,27.80
2022-11-19T09:24:47.243Z,25.95
2022-11-19T09:27:14.082Z,25.13
2022-11-19T09:29:41.552Z,28.52
2022-11-19T09:32:07.977Z,24.30
2022-11-19T09:34:35.185Z,24.08
2022-11-19T09:37:01.586Z,24.40
2022-11-19T09:39:28.015Z,25.30
2022-11-19T09:42:05.179Z,23.92
2022-11-19T09:44:31.466Z,24.30
2022-11-19T09:47:10.830Z,25.08
2022-11-19T09:49:40.772Z,22.08
2022-11-19T09:52:09.869Z,21.77
2022-11-19T09:54:40.249Z,22.88
2022-11-19T09:57:10.498Z,22.02
2022-11-19T09:59:39.015Z,23.67
2022-11-19T10:02:18.626Z,20.02
2022-11-19T10:04:46.063Z,22.25
2022-11-19T10:07:18.586Z,21.50
2022-11-19T10:09:54.632Z,21.23
2022-11-19T10:12:30.143Z,19.55
2022-11-19T10:15:15.125Z,21.55
2022-11-19T10:17:54.615Z,22.30
2022-11-19T10:20:39.263Z,19.60
2022-11-19T10:23:12.009Z,19.95
2022-11-19T10:28:25.035Z,19.17
2022-11-19T10:30:54.479Z,17.98
2022-11-19T10:33:27.377Z,19.00
2022-11-19T10:36:07.859Z,18.50
2022-11-19T10:38:37.646Z,17.70
2022-11-19T10:41:09.463Z,17.50
2022-11-19T10:43:46.086Z,19.37
2022-11-19T10:46:14.659Z,18.13
2022-11-19T10:48:43.249Z,20.42
2022-11-19T10:51:12.646Z,17.88
2022-11-19T10:53:39.712Z,18.40
2022-11-19T10:56:26.405Z,16.83
2022-11-19T10:59:03.152Z,18.23
2022-11-19T11:01:32.008Z,17.65
2022-11-19T11:04:05.519Z,19.48
2022-11-19T11:06:51.305Z,16.60
2022-11-19T11:09:36.153Z,18.98
2022-11-19T11:12:30.461Z,17.10
2022-11-19T11:15:07.249Z,15.55
2022-11-19T11:17:36.408Z,15.27
2022-11-19T11:20:07.382Z,16.90
2022-11-19T11:22:35.498Z,15.38
2022-11-19T11:25:07.049Z,15.52
2022-11-19T11:27:34.812Z,16.77
2022-11-19T11:30:06.194Z,18.35
2022-11-19T11:32:33.005Z,15.88
2022-11-19T11:35:02.348Z,15.18
2022-11-19T11:37:32.104Z,16.88
2022-11-19T11:39:59.101Z,14.05
2022-11-19T11:42:27.046Z,14.07
2022-11-19T11:44:54.658Z,14.27
2022-11-19T11:47:24.635Z,15.13
2022-11-19T11:50:06.663Z,17.10
2022-11-19T11:52:40.683Z,12.17
2022-11-19T11:55:13.482Z,14.60
2022-11-19T11:57:53.410Z,12.50
2022-11-19T12:00:32.133Z,14.27
2022-11-19T12:03:04.131Z,12.70
2022-11-19T12:05:44.975Z,11.07
2022-11-19T12:08:26.686Z,14.57
2022-11-19T12:11:08.022Z,13.48
2022-11-19T12:13:53.335Z,12.00
2022-11-19T12:16:23.678Z,13.80
2022-11-19T12:18:50.027Z,13.38
2022-11-19T12:21:32.723Z,12.15
2022-11-19T12:24:18.443Z,12.15
2022-11-19T12:26:59.157Z,13.50
2022-11-19T12:29:44.278Z,12.80
2022-11-19T12:32:17.464Z,12.30
2022-11-19T12:34:53.117Z,13.75
2022-11-19T12:37:22.540Z,13.30
2022-11-19T12:39:57.476Z,12.88
2022-11-19T12:42:44.723Z,14.00
2022-11-19T12:45:17.642Z,11.82
2022-11-19T12:47:56.386Z,11.25
2022-11-19T12:50:29.363Z,12.25
2022-11-19T12:53:09.898Z,13.57
2022-11-19T12:55:36.250Z,12.88
2022-11-19T12:58:23.083Z,13.57
2022-11-19T13:00:58.719Z,13.27
2022-11-19T13:03:40.872Z,12.30
2022-11-19T13:06:12.931Z,13.27
2022-11-19T13:08:44.883Z,11.45
2022-11-19T13:11:13.923Z,11.45
2022-11-19T13:13:48.501Z,13.15
2022-11-19T13:16:16.748Z,11.30
2022-11-19T13:18:45.122Z,11.77
2022-11-19T13:21:31.936Z,17.45
2022-11-19T13:24:03.364Z,12.57
2022-11-19T13:26:31.736Z,12.23
2022-11-19T13:29:18.440Z,11.50
2022-11-19T13:31:48.543Z,12.55
2022-11-19T13:34:26.851Z,11.50
2022-11-19T13:37:06.156Z,11.30
2022-11-19T13:39:35.276Z,11.93
2022-11-19T13:42:21.400Z,12.57
2022-11-19T13:44:47.977Z,11.30
2022-11-19T13:47:32.731Z,11.98
2022-11-19T13:50:04.582Z,13.48
2022-11-19T13:52:34.623Z,9.77
2022-11-19T13:55:01.069Z,12.10
2022-11-19T13:57:34.599Z,15.60
2022-11-19T14:00:20.739Z,11.50
2022-11-19T14:02:56.327Z,11.30
2022-11-19T14:05:22.636Z,10.55
2022-11-19T14:08:07.672Z,10.85
2022-11-19T14:10:34.074Z,11.25
2022-11-19T14:13:06.466Z,10.45
2022-11-19T14:15:57.979Z,11.07
2022-11-19T14:18:45.316Z,11.15
2022-11-19T14:21:44.583Z,11.15
2022-11-19T14:24:45.217Z,10.73
2022-11-19T14:27:19.152Z,13.35
2022-11-19T14:29:45.544Z,14.43
2022-11-19T14:32:12.065Z,11.02
2022-11-19T14:34:43.708Z,11.93
2022-11-19T14:37:21.941Z,10.00
2022-11-19T14:39:56.434Z,12.35
2022-11-19T14:42:23.286Z,10.40
2022-11-19T14:45:05.205Z,10.38
2022-11-19T14:47:36.026Z,11.75
2022-11-19T14:50:04.786Z,10.95
2022-11-19T14:52:51.516Z,11.77
2022-11-19T14:55:20.579Z,11.35
2022-11-19T14:57:55.559Z,10.93
2022-11-19T15:00:25.041Z,10.85
2022-11-19T15:02:52.622Z,10.63
2022-11-19T15:05:20.838Z,10.18
2022-11-19T15:07:52.915Z,9.50
2022-11-19T15:10:30.259Z,10.15
2022-11-19T15:13:15.501Z,9.02
2022-11-19T15:15:42.491Z,11.68
2022-11-19T15:18:11.890Z,10.38
2022-11-19T15:20:58.534Z,10.43
2022-11-19T15:23:28.739Z,9.93
2022-11-19T15:25:55.115Z,9.43
2022-11-19T15:28:26.964Z,11.48
2022-11-19T15:31:14.213Z,11.32
2022-11-19T15:34:15.862Z,9.25
2022-11-19T15:36:45.470Z,11.32
2022-11-19T15:39:47.400Z,10.07
2022-11-19T15:42:16.790Z,11.32
2022-11-19T15:44:52.286Z,15.65
2022-11-19T15:47:22.103Z,11.95
2022-11-19T15:49:48.903Z,53.83
2022-11-19T15:52:18.120Z,58.45
2022-11-19T15:54:44.925Z,22.88
2022-11-19T15:57:17.381Z,17.38
2022-11-19T15:59:48.673Z,11.75
2022-11-19T16:02:20.386Z,10.20
2022-11-19T16:04:48.756Z,10.03
2022-11-19T16:07:15.646Z,11.07
2022-11-19T16:09:43.120Z,11.13
2022-11-19T16:12:37.967Z,14.30
2022-11-19T16:15:33.335Z,14.05
2022-11-19T16:17:59.692Z,11.50
2022-11-19T16:20:26.100Z,11.60
2022-11-19T16:23:04.012Z,11.30
2022-11-19T16:25:32.300Z,12.00
2022-11-19T16:28:00.467Z,16.48
2022-11-19T16:30:28.331Z,22.38
2022-11-19T16:32:58.984Z,15.68
2022-11-19T16:35:27.084Z,13.75
2022-11-19T16:37:55.037Z,13.98
2022-11-19T16:40:22.128Z,12.25
2022-11-19T16:42:55.932Z,12.55
2022-11-19T16:45:32.159Z,11.20
2022-11-19T16:47:59.374Z,12.57
2022-11-19T16:50:26.927Z,10.68
2022-11-19T16:52:53.835Z,12.02
2022-11-19T16:55:23.211Z,14.15
2022-11-19T16:57:50.651Z,13.30
2022-11-19T17:00:19.270Z,12.50
2022-11-19T17:02:46.565Z,11.65
2022-11-19T17:05:16.782Z,12.27
2022-11-19T17:07:45.123Z,12.05
2022-11-19T17:10:24.552Z,9.80
2022-11-19T17:12:55.532Z,12.40
2022-11-19T17:15:41.097Z,16.10
2022-11-19T17:18:15.964Z,11.82
2022-11-19T17:20:45.463Z,11.05
2022-11-19T17:23:19.786Z,15.32
2022-11-19T17:25:47.904Z,13.38
2022-11-19T17:28:19.643Z,9.18
2022-11-19T17:30:49.084Z,9.60
2022-11-19T17:33:16.758Z,12.38
2022-11-19T17:35:44.511Z,8.40
2022-11-19T17:38:15.221Z,10.40
2022-11-19T17:40:49.820Z,11.27
2022-11-19T17:43:37.019Z,10.88
2022-11-19T17:46:03.494Z,10.38
2022-11-19T17:48:29.856Z,10.32
2022-11-19T17:50:57.647Z,11.13
2022-11-19T17:53:24.172Z,13.13
2022-11-19T17:55:52.687Z,10.30
2022-11-19T17:58:20.028Z,14.15
2022-11-19T18:00:46.729Z,9.57
2022-11-19T18:03:13.807Z,11.38
2022-11-19T18:05:42.567Z,10.32
2022-11-19T18:08:08.914Z,11.85
2022-11-19T18:10:35.364Z,13.98
2022-11-19T18:13:01.901Z,12.05
2022-11-19T18:15:28.354Z,9.90
2022-11-19T18:17:54.743Z,12.80
2022-11-19T18:20:21.117Z,11.07
2022-11-19T18:22:47.757Z,12.00
2022-11-19T18:25:18.539Z,14.57
2022-11-19T18:27:45.384Z,11.07
2022-11-19T18:30:12.060Z,12.43
2022-11-19T18:32:38.471Z,14.23
2022-11-19T18:35:06.083Z,12.27
2022-11-19T18:37:32.506Z,12.07
2022-11-19T18:39:58.887Z,17.90
2022-11-19T18:42:26.441Z,18.27
2022-11-19T18:44:53.578Z,14.27
2022-11-19T18:47:21.858Z,12.98
2022-11-19T18:49:48.198Z,14.27
2022-11-19T18:52:15.161Z,13.45
2022-11-19T18:54:41.569Z,18.88
2022-11-19T18:57:09.150Z,16.15
2022-11-19T18:59:35.604Z,17.33
2022-11-19T19:02:03.229Z,16.55
2022-11-19T19:04:29.783Z,14.07
2022-11-19T19:06:56.457Z,12.98
2022-11-19T19:09:23.086Z,15.63
2022-11-19T19:12:12.989Z,12.38
2022-11-19T19:14:40.532Z,14.00
2022-11-19T19:17:06.960Z,13.68
2022-11-19T19:19:34.443Z,14.88
2022-11-19T19:22:00.845Z,13.23
2022-11-19T19:24:27.342Z,10.85
2022-11-19T19:26:53.811Z,14.43
2022-11-19T19:29:20.586Z,12.40
2022-11-19T19:31:47.138Z,12.68
2022-11-19T19:34:13.475Z,13.60
2022-11-19T19:36:39.918Z,15.90
2022-11-19T19:39:06.395Z,13.48
2022-11-19T19:41:33.435Z,13.10
2022-11-19T19:44:02.539Z,16.00
2022-11-19T19:46:29.204Z,15.30
2022-11-19T19:48:55.922Z,13.63
2022-11-19T19:51:23.854Z,13.35
2022-11-19T19:53:50.384Z,16.27
2022-11-19T19:56:18.771Z,16.63
2022-11-19T19:58:45.487Z,14.95
2022-11-19T20:01:22.429Z,13.20
2022-11-19T20:03:54.126Z,14.95
2022-11-19T20:06:21.777Z,13.98
2022-11-19T20:08:48.221Z,16.63
2022-11-19T20:11:15.942Z,15.32
2022-11-19T20:13:43.008Z,12.95
2022-11-19T20:16:16.213Z,14.48
2022-11-19T20:18:45.047Z,15.13
2022-11-19T20:21:12.829Z,16.67
2022-11-19T20:23:40.056Z,15.85
2022-11-19T20:26:07.910Z,14.25
2022-11-19T20:28:34.389Z,16.05
2022-11-19T20:31:08.694Z,15.30
2022-11-19T20:33:35.206Z,13.32
2022-11-19T20:36:01.635Z,12.20
2022-11-19T20:38:28.262Z,11.65
2022-11-19T20:40:59.299Z,15.65
2022-11-19T20:43:50.094Z,12.20
2022-11-19T20:46:20.497Z,11.98
2022-11-19T20:48:47.607Z,13.38
2022-11-19T20:51:16.126Z,13.48
2022-11-19T20:53:43.161Z,14.30
2022-11-19T20:56:09.504Z,15.35
2022-11-19T20:58:35.845Z,16.60
2022-11-19T21:01:06.371Z,14.65
2022-11-19T21:03:33.839Z,13.88
2022-11-19T21:06:00.995Z,17.77
2022-11-19T21:08:28.283Z,17.05
2022-11-19T21:11:01.834Z,16.55
2022-11-19T21:13:28.918Z,17.02
2022-11-19T21:15:55.977Z,22.80
2022-11-19T21:18:24.414Z,17.92
2022-11-19T21:20:51.059Z,18.42
2022-11-19T21:23:17.621Z,16.90
2022-11-19T21:25:44.090Z,16.65
2022-11-19T21:28:10.518Z,18.58
2022-11-19T21:30:36.897Z,15.75
2022-11-19T21:33:03.408Z,16.80
2022-11-19T21:35:29.752Z,16.02
2022-11-19T21:37:56.184Z,13.88
2022-11-19T21:40:22.615Z,17.83
2022-11-19T21:42:49.095Z,14.35
2022-11-19T21:45:15.506Z,17.95
2022-11-19T21:47:41.888Z,15.15
2022-11-19T21:50:08.441Z,15.88
2022-11-19T21:52:34.866Z,14.07
2022-11-19T21:55:01.275Z,18.15
2022-11-19T21:57:28.210Z,16.70
2022-11-19T21:59:54.575Z,17.23
2022-11-19T22:02:21.004Z,16.65
2022-11-19T22:04:47.427Z,18.38
2022-11-19T22:07:14.849Z,15.18
2022-11-19T22:09:41.220Z,15.52
2022-11-19T22:12:07.561Z,18.02
2022-11-19T22:14:33.994Z,17.58
2022-11-19T22:17:00.446Z,18.98
2022-11-19T22:19:26.895Z,15.60
2022-11-19T22:21:53.329Z,18.48
2022-11-19T22:24:19.739Z,16.42
2022-11-19T22:26:46.161Z,17.80
2022-11-19T22:29:12.563Z,17.85
2022-11-19T22:31:38.893Z,27.63
2022-11-19T22:34:05.250Z,23.95
2022-11-19T22:36:33.595Z,18.30
2022-11-19T22:38:59.951Z,19.70
2022-11-19T22:41:26.380Z,21.33
2022-11-19T22:43:52.815Z,19.17
2022-11-19T22:46:19.783Z,23.55
2022-11-19T22:48:46.364Z,20.00
2022-11-19T22:51:14.411Z,14.88
2022-11-19T22:53:40.853Z,19.92
2022-11-19T22:56:08.336Z,20.25
2022-11-19T22:58:35.782Z,28.60
2022-11-19T23:01:02.665Z,27.85
2022-11-19T23:03:29.295Z,25.65
2022-11-19T23:05:55.949Z,32.30
2022-11-19T23:08:22.612Z,28.98
2022-11-19T23:10:49.099Z,19.58
2022-11-19T23:13:31.664Z,20.60
2022-11-19T23:15:58.317Z,22.40
2022-11-19T23:18:24.827Z,18.33
2022-11-19T23:20:55.760Z,19.95
2022-11-19T23:23:22.288Z,23.55
2022-11-19T23:25:48.699Z,31.13
2022-11-19T23:28:15.114Z,22.45
2022-11-19T23:30:41.558Z,22.33
2022-11-19T23:33:08.056Z,24.50
2022-11-19T23:35:34.953Z,26.67
2022-11-19T23:38:01.419Z,23.50
2022-11-19T23:40:27.775Z,20.42
2022-11-19T23:42:54.732Z,39.28
2022-11-19T23:45:21.092Z,49.75
2022-11-19T23:47:47.506Z,36.08
2022-11-19T23:50:13.931Z,28.23
2022-11-19T23:52:40.372Z,24.77
2022-11-19T23:55:06.899Z,26.45
2022-11-19T23:57:33.312Z,26.00
2022-11-19T23:59:59.702Z,27.23
